<?xml version="1.0" encoding="UTF-8" standalone="no" ?>
<gpx xmlns="http://www.topografix.com/GPX/1/1" xmlns:xsi="http://www.w3.org/2001/XMLSchema-instance" xsi:schemaLocation="http://www.topografix.com/GPX/1/1 http://www.topografix.com/GPX/1/1/gpx.xsd" version="1.1" creator="VisuGPX - https://www.visugpx.com">
  <metadata>
    <name>Montagne de Sous-Dine</name>
  </metadata>
  <trk>
    <name><![CDATA[Tracé actuel: 23 JAN 2021 09:02]]></name>
    <trkseg>
      <trkpt lat="46.01418" lon="6.30129">
        <ele>1106.13</ele>
        <time>2021-01-23T08:14:10Z</time>
      </trkpt>
      <trkpt lat="46.01405" lon="6.30138">
        <ele>1109.02</ele>
        <time>2021-01-23T08:16:08Z</time>
      </trkpt>
      <trkpt lat="46.01384" lon="6.30139">
        <ele>1111.9</ele>
        <time>2021-01-23T08:16:38Z</time>
      </trkpt>
      <trkpt lat="46.01366" lon="6.30136">
        <ele>1115.27</ele>
        <time>2021-01-23T08:17:23Z</time>
      </trkpt>
      <trkpt lat="46.01344" lon="6.30131">
        <ele>1120.55</ele>
        <time>2021-01-23T08:18:01Z</time>
      </trkpt>
      <trkpt lat="46.01321" lon="6.30134">
        <ele>1125.84</ele>
        <time>2021-01-23T08:18:40Z</time>
      </trkpt>
      <trkpt lat="46.01298" lon="6.30132">
        <ele>1131.13</ele>
        <time>2021-01-23T08:19:17Z</time>
      </trkpt>
      <trkpt lat="46.01274" lon="6.30136">
        <ele>1135.45</ele>
        <time>2021-01-23T08:19:53Z</time>
      </trkpt>
      <trkpt lat="46.01256" lon="6.30139">
        <ele>1137.38</ele>
        <time>2021-01-23T08:21:34Z</time>
      </trkpt>
      <trkpt lat="46.0126" lon="6.30139">
        <ele>1138.34</ele>
        <time>2021-01-23T08:24:26Z</time>
      </trkpt>
      <trkpt lat="46.01248" lon="6.30145">
        <ele>1140.26</ele>
        <time>2021-01-23T08:26:04Z</time>
      </trkpt>
      <trkpt lat="46.01235" lon="6.30147">
        <ele>1144.11</ele>
        <time>2021-01-23T08:27:23Z</time>
      </trkpt>
      <trkpt lat="46.01215" lon="6.30137">
        <ele>1149.87</ele>
        <time>2021-01-23T08:28:04Z</time>
      </trkpt>
      <trkpt lat="46.01199" lon="6.30125">
        <ele>1154.68</ele>
        <time>2021-01-23T08:28:32Z</time>
      </trkpt>
      <trkpt lat="46.01178" lon="6.30106">
        <ele>1159.49</ele>
        <time>2021-01-23T08:29:13Z</time>
      </trkpt>
      <trkpt lat="46.01163" lon="6.30089">
        <ele>1163.81</ele>
        <time>2021-01-23T08:29:41Z</time>
      </trkpt>
      <trkpt lat="46.01142" lon="6.3007">
        <ele>1169.1</ele>
        <time>2021-01-23T08:30:18Z</time>
      </trkpt>
      <trkpt lat="46.01123" lon="6.30062">
        <ele>1174.87</ele>
        <time>2021-01-23T08:30:55Z</time>
      </trkpt>
      <trkpt lat="46.01104" lon="6.30056">
        <ele>1178.23</ele>
        <time>2021-01-23T08:31:23Z</time>
      </trkpt>
      <trkpt lat="46.01085" lon="6.30048">
        <ele>1181.6</ele>
        <time>2021-01-23T08:31:50Z</time>
      </trkpt>
      <trkpt lat="46.01058" lon="6.30042">
        <ele>1186.88</ele>
        <time>2021-01-23T08:32:31Z</time>
      </trkpt>
      <trkpt lat="46.01043" lon="6.30055">
        <ele>1190.73</ele>
        <time>2021-01-23T08:33:01Z</time>
      </trkpt>
      <trkpt lat="46.01023" lon="6.30066">
        <ele>1194.09</ele>
        <time>2021-01-23T08:33:29Z</time>
      </trkpt>
      <trkpt lat="46.00999" lon="6.30066">
        <ele>1195.54</ele>
        <time>2021-01-23T08:33:56Z</time>
      </trkpt>
      <trkpt lat="46.00971" lon="6.30064">
        <ele>1195.54</ele>
        <time>2021-01-23T08:34:21Z</time>
      </trkpt>
      <trkpt lat="46.00944" lon="6.30063">
        <ele>1196.98</ele>
        <time>2021-01-23T08:34:48Z</time>
      </trkpt>
      <trkpt lat="46.00924" lon="6.30062">
        <ele>1198.42</ele>
        <time>2021-01-23T08:35:11Z</time>
      </trkpt>
      <trkpt lat="46.00906" lon="6.30065">
        <ele>1202.27</ele>
        <time>2021-01-23T08:35:38Z</time>
      </trkpt>
      <trkpt lat="46.00887" lon="6.30077">
        <ele>1208.03</ele>
        <time>2021-01-23T08:36:07Z</time>
      </trkpt>
      <trkpt lat="46.00866" lon="6.30082">
        <ele>1208.51</ele>
        <time>2021-01-23T08:37:08Z</time>
      </trkpt>
      <trkpt lat="46.0087" lon="6.30089">
        <ele>1209.48</ele>
        <time>2021-01-23T08:38:35Z</time>
      </trkpt>
      <trkpt lat="46.00849" lon="6.30075">
        <ele>1215.24</ele>
        <time>2021-01-23T08:39:27Z</time>
      </trkpt>
      <trkpt lat="46.00834" lon="6.30047">
        <ele>1221.49</ele>
        <time>2021-01-23T08:40:05Z</time>
      </trkpt>
      <trkpt lat="46.00811" lon="6.30037">
        <ele>1228.22</ele>
        <time>2021-01-23T08:40:45Z</time>
      </trkpt>
      <trkpt lat="46.00787" lon="6.30042">
        <ele>1233.99</ele>
        <time>2021-01-23T08:41:27Z</time>
      </trkpt>
      <trkpt lat="46.00769" lon="6.30047">
        <ele>1237.83</ele>
        <time>2021-01-23T08:41:55Z</time>
      </trkpt>
      <trkpt lat="46.0075" lon="6.30031">
        <ele>1244.08</ele>
        <time>2021-01-23T08:42:33Z</time>
      </trkpt>
      <trkpt lat="46.00733" lon="6.3001">
        <ele>1250.81</ele>
        <time>2021-01-23T08:43:14Z</time>
      </trkpt>
      <trkpt lat="46.00721" lon="6.29978">
        <ele>1256.1</ele>
        <time>2021-01-23T08:43:59Z</time>
      </trkpt>
      <trkpt lat="46.00706" lon="6.29949">
        <ele>1261.87</ele>
        <time>2021-01-23T08:44:38Z</time>
      </trkpt>
      <trkpt lat="46.00693" lon="6.29922">
        <ele>1265.23</ele>
        <time>2021-01-23T08:45:07Z</time>
      </trkpt>
      <trkpt lat="46.00684" lon="6.29899">
        <ele>1268.12</ele>
        <time>2021-01-23T08:45:32Z</time>
      </trkpt>
      <trkpt lat="46.0066" lon="6.29892">
        <ele>1270.52</ele>
        <time>2021-01-23T08:46:02Z</time>
      </trkpt>
      <trkpt lat="46.00641" lon="6.29891">
        <ele>1272.44</ele>
        <time>2021-01-23T08:46:26Z</time>
      </trkpt>
      <trkpt lat="46.00622" lon="6.29888">
        <ele>1275.81</ele>
        <time>2021-01-23T08:46:54Z</time>
      </trkpt>
      <trkpt lat="46.00605" lon="6.29859">
        <ele>1280.13</ele>
        <time>2021-01-23T08:47:35Z</time>
      </trkpt>
      <trkpt lat="46.00585" lon="6.29844">
        <ele>1283.98</ele>
        <time>2021-01-23T08:48:03Z</time>
      </trkpt>
      <trkpt lat="46.00564" lon="6.29838">
        <ele>1287.34</ele>
        <time>2021-01-23T08:48:45Z</time>
      </trkpt>
      <trkpt lat="46.00544" lon="6.2983">
        <ele>1291.19</ele>
        <time>2021-01-23T08:49:14Z</time>
      </trkpt>
      <trkpt lat="46.00523" lon="6.29812">
        <ele>1295.99</ele>
        <time>2021-01-23T08:49:54Z</time>
      </trkpt>
      <trkpt lat="46.00501" lon="6.29806">
        <ele>1299.36</ele>
        <time>2021-01-23T08:50:22Z</time>
      </trkpt>
      <trkpt lat="46.00481" lon="6.29804">
        <ele>1301.76</ele>
        <time>2021-01-23T08:50:52Z</time>
      </trkpt>
      <trkpt lat="46.00461" lon="6.29796">
        <ele>1308.49</ele>
        <time>2021-01-23T08:51:31Z</time>
      </trkpt>
      <trkpt lat="46.00439" lon="6.29788">
        <ele>1312.82</ele>
        <time>2021-01-23T08:52:10Z</time>
      </trkpt>
      <trkpt lat="46.00417" lon="6.29782">
        <ele>1318.1</ele>
        <time>2021-01-23T08:52:48Z</time>
      </trkpt>
      <trkpt lat="46.00394" lon="6.29778">
        <ele>1325.8</ele>
        <time>2021-01-23T08:53:36Z</time>
      </trkpt>
      <trkpt lat="46.00375" lon="6.29776">
        <ele>1331.08</ele>
        <time>2021-01-23T08:54:15Z</time>
      </trkpt>
      <trkpt lat="46.00355" lon="6.29761">
        <ele>1336.37</ele>
        <time>2021-01-23T08:54:54Z</time>
      </trkpt>
      <trkpt lat="46.00334" lon="6.29744">
        <ele>1340.22</ele>
        <time>2021-01-23T08:56:59Z</time>
      </trkpt>
      <trkpt lat="46.00313" lon="6.29728">
        <ele>1344.06</ele>
        <time>2021-01-23T08:57:30Z</time>
      </trkpt>
      <trkpt lat="46.00293" lon="6.29704">
        <ele>1348.87</ele>
        <time>2021-01-23T08:58:11Z</time>
      </trkpt>
      <trkpt lat="46.00277" lon="6.29689">
        <ele>1353.67</ele>
        <time>2021-01-23T08:58:41Z</time>
      </trkpt>
      <trkpt lat="46.00262" lon="6.29674">
        <ele>1358</ele>
        <time>2021-01-23T08:59:08Z</time>
      </trkpt>
      <trkpt lat="46.00243" lon="6.29659">
        <ele>1363.29</ele>
        <time>2021-01-23T08:59:47Z</time>
      </trkpt>
      <trkpt lat="46.00223" lon="6.29638">
        <ele>1368.57</ele>
        <time>2021-01-23T09:00:28Z</time>
      </trkpt>
      <trkpt lat="46.00201" lon="6.29626">
        <ele>1375.3</ele>
        <time>2021-01-23T09:01:08Z</time>
      </trkpt>
      <trkpt lat="46.00185" lon="6.29611">
        <ele>1378.19</ele>
        <time>2021-01-23T09:01:37Z</time>
      </trkpt>
      <trkpt lat="46.00188" lon="6.29609">
        <ele>1377.71</ele>
        <time>2021-01-23T09:04:35Z</time>
      </trkpt>
      <trkpt lat="46.00169" lon="6.29592">
        <ele>1379.15</ele>
        <time>2021-01-23T09:05:13Z</time>
      </trkpt>
      <trkpt lat="46.00152" lon="6.29576">
        <ele>1382.51</ele>
        <time>2021-01-23T09:05:41Z</time>
      </trkpt>
      <trkpt lat="46.0013" lon="6.29558">
        <ele>1388.28</ele>
        <time>2021-01-23T09:06:22Z</time>
      </trkpt>
      <trkpt lat="46.00112" lon="6.29536">
        <ele>1392.61</ele>
        <time>2021-01-23T09:07:02Z</time>
      </trkpt>
      <trkpt lat="46.00098" lon="6.29516">
        <ele>1395.97</ele>
        <time>2021-01-23T09:07:30Z</time>
      </trkpt>
      <trkpt lat="46.00073" lon="6.29521">
        <ele>1398.37</ele>
        <time>2021-01-23T09:08:01Z</time>
      </trkpt>
      <trkpt lat="46.00048" lon="6.29531">
        <ele>1401.26</ele>
        <time>2021-01-23T09:09:05Z</time>
      </trkpt>
      <trkpt lat="46.0003" lon="6.29541">
        <ele>1405.58</ele>
        <time>2021-01-23T09:10:24Z</time>
      </trkpt>
      <trkpt lat="46.00009" lon="6.29555">
        <ele>1411.83</ele>
        <time>2021-01-23T09:11:04Z</time>
      </trkpt>
      <trkpt lat="45.99988" lon="6.29564">
        <ele>1417.6</ele>
        <time>2021-01-23T09:11:57Z</time>
      </trkpt>
      <trkpt lat="45.9998" lon="6.29565">
        <ele>1418.08</ele>
        <time>2021-01-23T09:15:20Z</time>
      </trkpt>
      <trkpt lat="45.99982" lon="6.2957">
        <ele>1417.6</ele>
        <time>2021-01-23T09:18:44Z</time>
      </trkpt>
      <trkpt lat="45.99968" lon="6.29588">
        <ele>1420.97</ele>
        <time>2021-01-23T09:19:44Z</time>
      </trkpt>
      <trkpt lat="45.99952" lon="6.29607">
        <ele>1425.29</ele>
        <time>2021-01-23T09:20:25Z</time>
      </trkpt>
      <trkpt lat="45.99934" lon="6.29633">
        <ele>1433.94</ele>
        <time>2021-01-23T09:21:20Z</time>
      </trkpt>
      <trkpt lat="45.99922" lon="6.29653">
        <ele>1439.23</ele>
        <time>2021-01-23T09:22:01Z</time>
      </trkpt>
      <trkpt lat="45.99919" lon="6.29679">
        <ele>1443.56</ele>
        <time>2021-01-23T09:22:40Z</time>
      </trkpt>
      <trkpt lat="45.9993" lon="6.29706">
        <ele>1448.84</ele>
        <time>2021-01-23T09:23:27Z</time>
      </trkpt>
      <trkpt lat="45.99939" lon="6.29737">
        <ele>1453.65</ele>
        <time>2021-01-23T09:24:09Z</time>
      </trkpt>
      <trkpt lat="45.99949" lon="6.29765">
        <ele>1458.46</ele>
        <time>2021-01-23T09:24:52Z</time>
      </trkpt>
      <trkpt lat="45.99965" lon="6.29788">
        <ele>1462.3</ele>
        <time>2021-01-23T09:25:35Z</time>
      </trkpt>
      <trkpt lat="45.99978" lon="6.29807">
        <ele>1466.15</ele>
        <time>2021-01-23T09:26:27Z</time>
      </trkpt>
      <trkpt lat="45.99989" lon="6.29825">
        <ele>1470.47</ele>
        <time>2021-01-23T09:28:09Z</time>
      </trkpt>
      <trkpt lat="45.9997" lon="6.29824">
        <ele>1476.24</ele>
        <time>2021-01-23T09:29:03Z</time>
      </trkpt>
      <trkpt lat="45.99949" lon="6.29822">
        <ele>1482.97</ele>
        <time>2021-01-23T09:29:57Z</time>
      </trkpt>
      <trkpt lat="45.99929" lon="6.29819">
        <ele>1487.3</ele>
        <time>2021-01-23T09:30:36Z</time>
      </trkpt>
      <trkpt lat="45.99909" lon="6.2982">
        <ele>1492.58</ele>
        <time>2021-01-23T09:31:26Z</time>
      </trkpt>
      <trkpt lat="45.99889" lon="6.29817">
        <ele>1496.91</ele>
        <time>2021-01-23T09:32:01Z</time>
      </trkpt>
      <trkpt lat="45.99867" lon="6.29808">
        <ele>1503.16</ele>
        <time>2021-01-23T09:32:57Z</time>
      </trkpt>
      <trkpt lat="45.99846" lon="6.29802">
        <ele>1507.97</ele>
        <time>2021-01-23T09:33:36Z</time>
      </trkpt>
      <trkpt lat="45.99827" lon="6.29787">
        <ele>1514.69</ele>
        <time>2021-01-23T09:34:30Z</time>
      </trkpt>
      <trkpt lat="45.99807" lon="6.29779">
        <ele>1520.46</ele>
        <time>2021-01-23T09:35:11Z</time>
      </trkpt>
      <trkpt lat="45.99786" lon="6.29765">
        <ele>1526.71</ele>
        <time>2021-01-23T09:35:53Z</time>
      </trkpt>
      <trkpt lat="45.99768" lon="6.29755">
        <ele>1531.04</ele>
        <time>2021-01-23T09:36:28Z</time>
      </trkpt>
      <trkpt lat="45.9975" lon="6.29741">
        <ele>1537.29</ele>
        <time>2021-01-23T09:37:10Z</time>
      </trkpt>
      <trkpt lat="45.99734" lon="6.29728">
        <ele>1542.57</ele>
        <time>2021-01-23T09:37:47Z</time>
      </trkpt>
      <trkpt lat="45.99714" lon="6.29721">
        <ele>1549.3</ele>
        <time>2021-01-23T09:38:36Z</time>
      </trkpt>
      <trkpt lat="45.99698" lon="6.29731">
        <ele>1552.19</ele>
        <time>2021-01-23T09:39:10Z</time>
      </trkpt>
      <trkpt lat="45.9969" lon="6.29757">
        <ele>1555.55</ele>
        <time>2021-01-23T09:39:48Z</time>
      </trkpt>
      <trkpt lat="45.99679" lon="6.29787">
        <ele>1561.32</ele>
        <time>2021-01-23T09:40:40Z</time>
      </trkpt>
      <trkpt lat="45.99668" lon="6.29812">
        <ele>1566.12</ele>
        <time>2021-01-23T09:41:26Z</time>
      </trkpt>
      <trkpt lat="45.99656" lon="6.29833">
        <ele>1570.93</ele>
        <time>2021-01-23T09:42:08Z</time>
      </trkpt>
      <trkpt lat="45.99642" lon="6.2985">
        <ele>1576.22</ele>
        <time>2021-01-23T09:43:34Z</time>
      </trkpt>
      <trkpt lat="45.99626" lon="6.29865">
        <ele>1581.03</ele>
        <time>2021-01-23T09:44:13Z</time>
      </trkpt>
      <trkpt lat="45.99609" lon="6.2987">
        <ele>1586.31</ele>
        <time>2021-01-23T09:44:56Z</time>
      </trkpt>
      <trkpt lat="45.9959" lon="6.29856">
        <ele>1592.56</ele>
        <time>2021-01-23T09:45:43Z</time>
      </trkpt>
      <trkpt lat="45.99578" lon="6.29876">
        <ele>1592.56</ele>
        <time>2021-01-23T09:47:16Z</time>
      </trkpt>
      <trkpt lat="45.99571" lon="6.29908">
        <ele>1592.08</ele>
        <time>2021-01-23T09:48:09Z</time>
      </trkpt>
      <trkpt lat="45.99573" lon="6.29926">
        <ele>1593.04</ele>
        <time>2021-01-23T09:51:05Z</time>
      </trkpt>
      <trkpt lat="45.99585" lon="6.2995">
        <ele>1598.81</ele>
        <time>2021-01-23T09:51:52Z</time>
      </trkpt>
      <trkpt lat="45.99599" lon="6.29967">
        <ele>1606.02</ele>
        <time>2021-01-23T09:52:28Z</time>
      </trkpt>
      <trkpt lat="45.99608" lon="6.29995">
        <ele>1611.79</ele>
        <time>2021-01-23T09:53:36Z</time>
      </trkpt>
      <trkpt lat="45.9961" lon="6.30028">
        <ele>1619</ele>
        <time>2021-01-23T09:54:16Z</time>
      </trkpt>
      <trkpt lat="45.99611" lon="6.30054">
        <ele>1622.36</ele>
        <time>2021-01-23T09:54:45Z</time>
      </trkpt>
      <trkpt lat="45.9962" lon="6.30088">
        <ele>1630.05</ele>
        <time>2021-01-23T09:55:35Z</time>
      </trkpt>
      <trkpt lat="45.99634" lon="6.30115">
        <ele>1637.26</ele>
        <time>2021-01-23T09:56:25Z</time>
      </trkpt>
      <trkpt lat="45.99646" lon="6.30139">
        <ele>1641.59</ele>
        <time>2021-01-23T09:57:14Z</time>
      </trkpt>
      <trkpt lat="45.99661" lon="6.30153">
        <ele>1647.36</ele>
        <time>2021-01-23T09:57:53Z</time>
      </trkpt>
      <trkpt lat="45.99669" lon="6.30184">
        <ele>1653.6</ele>
        <time>2021-01-23T09:58:43Z</time>
      </trkpt>
      <trkpt lat="45.99661" lon="6.3022">
        <ele>1657.93</ele>
        <time>2021-01-23T09:59:23Z</time>
      </trkpt>
      <trkpt lat="45.99644" lon="6.30249">
        <ele>1661.78</ele>
        <time>2021-01-23T10:00:03Z</time>
      </trkpt>
      <trkpt lat="45.99627" lon="6.30274">
        <ele>1661.78</ele>
        <time>2021-01-23T10:00:28Z</time>
      </trkpt>
      <trkpt lat="45.99612" lon="6.303">
        <ele>1664.18</ele>
        <time>2021-01-23T10:01:05Z</time>
      </trkpt>
      <trkpt lat="45.996" lon="6.30327">
        <ele>1666.58</ele>
        <time>2021-01-23T10:01:35Z</time>
      </trkpt>
      <trkpt lat="45.99587" lon="6.30348">
        <ele>1668.51</ele>
        <time>2021-01-23T10:02:03Z</time>
      </trkpt>
      <trkpt lat="45.99576" lon="6.30375">
        <ele>1672.35</ele>
        <time>2021-01-23T10:02:41Z</time>
      </trkpt>
      <trkpt lat="45.99566" lon="6.30399">
        <ele>1678.12</ele>
        <time>2021-01-23T10:03:24Z</time>
      </trkpt>
      <trkpt lat="45.99556" lon="6.30427">
        <ele>1681.48</ele>
        <time>2021-01-23T10:04:02Z</time>
      </trkpt>
      <trkpt lat="45.99548" lon="6.30457">
        <ele>1687.73</ele>
        <time>2021-01-23T10:04:50Z</time>
      </trkpt>
      <trkpt lat="45.99532" lon="6.30474">
        <ele>1686.29</ele>
        <time>2021-01-23T10:05:16Z</time>
      </trkpt>
      <trkpt lat="45.99508" lon="6.30487">
        <ele>1689.17</ele>
        <time>2021-01-23T10:06:05Z</time>
      </trkpt>
      <trkpt lat="45.99505" lon="6.30526">
        <ele>1691.58</ele>
        <time>2021-01-23T10:06:49Z</time>
      </trkpt>
      <trkpt lat="45.99506" lon="6.30564">
        <ele>1694.46</ele>
        <time>2021-01-23T10:07:32Z</time>
      </trkpt>
      <trkpt lat="45.99507" lon="6.3059">
        <ele>1697.34</ele>
        <time>2021-01-23T10:08:09Z</time>
      </trkpt>
      <trkpt lat="45.99503" lon="6.30625">
        <ele>1706.48</ele>
        <time>2021-01-23T10:09:38Z</time>
      </trkpt>
      <trkpt lat="45.995" lon="6.30659">
        <ele>1713.69</ele>
        <time>2021-01-23T10:10:25Z</time>
      </trkpt>
      <trkpt lat="45.99498" lon="6.30689">
        <ele>1717.05</ele>
        <time>2021-01-23T10:10:55Z</time>
      </trkpt>
      <trkpt lat="45.99495" lon="6.30721">
        <ele>1722.34</ele>
        <time>2021-01-23T10:11:29Z</time>
      </trkpt>
      <trkpt lat="45.99488" lon="6.30751">
        <ele>1725.7</ele>
        <time>2021-01-23T10:12:06Z</time>
      </trkpt>
      <trkpt lat="45.99482" lon="6.30789">
        <ele>1729.55</ele>
        <time>2021-01-23T10:12:46Z</time>
      </trkpt>
      <trkpt lat="45.99481" lon="6.30822">
        <ele>1734.36</ele>
        <time>2021-01-23T10:13:27Z</time>
      </trkpt>
      <trkpt lat="45.99475" lon="6.3085">
        <ele>1741.57</ele>
        <time>2021-01-23T10:14:14Z</time>
      </trkpt>
      <trkpt lat="45.99468" lon="6.30875">
        <ele>1747.81</ele>
        <time>2021-01-23T10:15:07Z</time>
      </trkpt>
      <trkpt lat="45.9946" lon="6.30902">
        <ele>1753.1</ele>
        <time>2021-01-23T10:15:52Z</time>
      </trkpt>
      <trkpt lat="45.99452" lon="6.30932">
        <ele>1762.23</ele>
        <time>2021-01-23T10:16:49Z</time>
      </trkpt>
      <trkpt lat="45.9946" lon="6.30959">
        <ele>1766.08</ele>
        <time>2021-01-23T10:17:55Z</time>
      </trkpt>
      <trkpt lat="45.99476" lon="6.30976">
        <ele>1771.37</ele>
        <time>2021-01-23T10:18:41Z</time>
      </trkpt>
      <trkpt lat="45.99485" lon="6.31001">
        <ele>1778.1</ele>
        <time>2021-01-23T10:19:46Z</time>
      </trkpt>
      <trkpt lat="45.99479" lon="6.31023">
        <ele>1779.54</ele>
        <time>2021-01-23T10:21:50Z</time>
      </trkpt>
      <trkpt lat="45.99486" lon="6.31025">
        <ele>1779.54</ele>
        <time>2021-01-23T10:24:44Z</time>
      </trkpt>
      <trkpt lat="45.99504" lon="6.31036">
        <ele>1785.31</ele>
        <time>2021-01-23T10:25:35Z</time>
      </trkpt>
      <trkpt lat="45.99517" lon="6.31056">
        <ele>1789.63</ele>
        <time>2021-01-23T10:26:21Z</time>
      </trkpt>
      <trkpt lat="45.99538" lon="6.31061">
        <ele>1796.84</ele>
        <time>2021-01-23T10:27:21Z</time>
      </trkpt>
      <trkpt lat="45.99558" lon="6.31077">
        <ele>1803.09</ele>
        <time>2021-01-23T10:28:13Z</time>
      </trkpt>
      <trkpt lat="45.99576" lon="6.31096">
        <ele>1808.86</ele>
        <time>2021-01-23T10:29:03Z</time>
      </trkpt>
      <trkpt lat="45.99593" lon="6.31114">
        <ele>1813.18</ele>
        <time>2021-01-23T10:29:43Z</time>
      </trkpt>
      <trkpt lat="45.99609" lon="6.31129">
        <ele>1817.51</ele>
        <time>2021-01-23T10:30:21Z</time>
      </trkpt>
      <trkpt lat="45.99628" lon="6.31149">
        <ele>1821.84</ele>
        <time>2021-01-23T10:31:04Z</time>
      </trkpt>
      <trkpt lat="45.99647" lon="6.31171">
        <ele>1825.2</ele>
        <time>2021-01-23T10:31:47Z</time>
      </trkpt>
      <trkpt lat="45.99661" lon="6.31192">
        <ele>1828.56</ele>
        <time>2021-01-23T10:32:27Z</time>
      </trkpt>
      <trkpt lat="45.99678" lon="6.31207">
        <ele>1835.77</ele>
        <time>2021-01-23T10:33:15Z</time>
      </trkpt>
      <trkpt lat="45.99699" lon="6.31211">
        <ele>1842.02</ele>
        <time>2021-01-23T10:34:12Z</time>
      </trkpt>
      <trkpt lat="45.99718" lon="6.31213">
        <ele>1848.27</ele>
        <time>2021-01-23T10:34:59Z</time>
      </trkpt>
      <trkpt lat="45.99735" lon="6.31227">
        <ele>1853.56</ele>
        <time>2021-01-23T10:35:47Z</time>
      </trkpt>
      <trkpt lat="45.99748" lon="6.3125">
        <ele>1859.33</ele>
        <time>2021-01-23T10:36:35Z</time>
      </trkpt>
      <trkpt lat="45.99758" lon="6.31276">
        <ele>1865.09</ele>
        <time>2021-01-23T10:37:26Z</time>
      </trkpt>
      <trkpt lat="45.9977" lon="6.31297">
        <ele>1868.46</ele>
        <time>2021-01-23T10:38:07Z</time>
      </trkpt>
      <trkpt lat="45.9978" lon="6.31316">
        <ele>1872.3</ele>
        <time>2021-01-23T10:39:16Z</time>
      </trkpt>
      <trkpt lat="45.99789" lon="6.31343">
        <ele>1878.07</ele>
        <time>2021-01-23T10:40:16Z</time>
      </trkpt>
      <trkpt lat="45.99792" lon="6.31358">
        <ele>1884.8</ele>
        <time>2021-01-23T10:41:16Z</time>
      </trkpt>
      <trkpt lat="45.99791" lon="6.31376">
        <ele>1888.65</ele>
        <time>2021-01-23T10:42:08Z</time>
      </trkpt>
      <trkpt lat="45.99807" lon="6.31392">
        <ele>1892.01</ele>
        <time>2021-01-23T10:42:50Z</time>
      </trkpt>
      <trkpt lat="45.99819" lon="6.3141">
        <ele>1896.34</ele>
        <time>2021-01-23T10:43:44Z</time>
      </trkpt>
      <trkpt lat="45.99822" lon="6.31433">
        <ele>1904.51</ele>
        <time>2021-01-23T10:44:47Z</time>
      </trkpt>
      <trkpt lat="45.99813" lon="6.31456">
        <ele>1907.87</ele>
        <time>2021-01-23T10:45:33Z</time>
      </trkpt>
      <trkpt lat="45.99828" lon="6.31475">
        <ele>1910.28</ele>
        <time>2021-01-23T10:46:15Z</time>
      </trkpt>
      <trkpt lat="45.99839" lon="6.31512">
        <ele>1911.72</ele>
        <time>2021-01-23T10:47:01Z</time>
      </trkpt>
      <trkpt lat="45.99827" lon="6.31538">
        <ele>1915.56</ele>
        <time>2021-01-23T10:47:40Z</time>
      </trkpt>
      <trkpt lat="45.99827" lon="6.31561">
        <ele>1915.08</ele>
        <time>2021-01-23T10:48:13Z</time>
      </trkpt>
      <trkpt lat="45.99829" lon="6.3159">
        <ele>1913.16</ele>
        <time>2021-01-23T10:48:35Z</time>
      </trkpt>
      <trkpt lat="45.99835" lon="6.31628">
        <ele>1908.83</ele>
        <time>2021-01-23T10:49:06Z</time>
      </trkpt>
      <trkpt lat="45.99845" lon="6.31653">
        <ele>1913.16</ele>
        <time>2021-01-23T10:49:50Z</time>
      </trkpt>
      <trkpt lat="45.9985" lon="6.31666">
        <ele>1911.24</ele>
        <time>2021-01-23T10:54:32Z</time>
      </trkpt>
      <trkpt lat="45.99863" lon="6.31694">
        <ele>1914.12</ele>
        <time>2021-01-23T10:55:06Z</time>
      </trkpt>
      <trkpt lat="45.99877" lon="6.31711">
        <ele>1917.49</ele>
        <time>2021-01-23T10:55:44Z</time>
      </trkpt>
      <trkpt lat="45.99891" lon="6.31733">
        <ele>1919.89</ele>
        <time>2021-01-23T10:56:14Z</time>
      </trkpt>
      <trkpt lat="45.99909" lon="6.31747">
        <ele>1923.74</ele>
        <time>2021-01-23T10:56:44Z</time>
      </trkpt>
      <trkpt lat="45.99919" lon="6.31778">
        <ele>1926.62</ele>
        <time>2021-01-23T10:57:30Z</time>
      </trkpt>
      <trkpt lat="45.99934" lon="6.31803">
        <ele>1928.54</ele>
        <time>2021-01-23T10:57:56Z</time>
      </trkpt>
      <trkpt lat="45.99943" lon="6.31828">
        <ele>1929.98</ele>
        <time>2021-01-23T10:58:21Z</time>
      </trkpt>
      <trkpt lat="45.9995" lon="6.3186">
        <ele>1932.39</ele>
        <time>2021-01-23T10:58:48Z</time>
      </trkpt>
      <trkpt lat="45.99968" lon="6.31876">
        <ele>1935.75</ele>
        <time>2021-01-23T10:59:11Z</time>
      </trkpt>
      <trkpt lat="45.99983" lon="6.31901">
        <ele>1937.19</ele>
        <time>2021-01-23T10:59:34Z</time>
      </trkpt>
      <trkpt lat="45.99994" lon="6.31922">
        <ele>1938.64</ele>
        <time>2021-01-23T11:00:00Z</time>
      </trkpt>
      <trkpt lat="46.00008" lon="6.31943">
        <ele>1937.19</ele>
        <time>2021-01-23T11:00:19Z</time>
      </trkpt>
      <trkpt lat="46.00021" lon="6.31962">
        <ele>1940.08</ele>
        <time>2021-01-23T11:00:43Z</time>
      </trkpt>
      <trkpt lat="46.00034" lon="6.31979">
        <ele>1938.64</ele>
        <time>2021-01-23T11:01:02Z</time>
      </trkpt>
      <trkpt lat="46.0005" lon="6.32003">
        <ele>1942</ele>
        <time>2021-01-23T11:01:32Z</time>
      </trkpt>
      <trkpt lat="46.00068" lon="6.3203">
        <ele>1943.92</ele>
        <time>2021-01-23T11:02:12Z</time>
      </trkpt>
      <trkpt lat="46.00088" lon="6.32054">
        <ele>1947.29</ele>
        <time>2021-01-23T11:02:51Z</time>
      </trkpt>
      <trkpt lat="46.00102" lon="6.3207">
        <ele>1950.17</ele>
        <time>2021-01-23T11:03:18Z</time>
      </trkpt>
      <trkpt lat="46.00121" lon="6.32091">
        <ele>1954.02</ele>
        <time>2021-01-23T11:03:59Z</time>
      </trkpt>
      <trkpt lat="46.00133" lon="6.32109">
        <ele>1957.38</ele>
        <time>2021-01-23T11:04:29Z</time>
      </trkpt>
      <trkpt lat="46.0015" lon="6.32129">
        <ele>1959.78</ele>
        <time>2021-01-23T11:04:58Z</time>
      </trkpt>
      <trkpt lat="46.0017" lon="6.32151">
        <ele>1964.59</ele>
        <time>2021-01-23T11:05:37Z</time>
      </trkpt>
      <trkpt lat="46.00183" lon="6.32175">
        <ele>1967.96</ele>
        <time>2021-01-23T11:06:16Z</time>
      </trkpt>
      <trkpt lat="46.00198" lon="6.32207">
        <ele>1970.84</ele>
        <time>2021-01-23T11:06:56Z</time>
      </trkpt>
      <trkpt lat="46.00208" lon="6.32236">
        <ele>1974.69</ele>
        <time>2021-01-23T11:07:30Z</time>
      </trkpt>
      <trkpt lat="46.00222" lon="6.32257">
        <ele>1976.61</ele>
        <time>2021-01-23T11:07:56Z</time>
      </trkpt>
      <trkpt lat="46.00236" lon="6.3228">
        <ele>1978.53</ele>
        <time>2021-01-23T11:08:25Z</time>
      </trkpt>
      <trkpt lat="46.00251" lon="6.32298">
        <ele>1981.41</ele>
        <time>2021-01-23T11:08:51Z</time>
      </trkpt>
      <trkpt lat="46.00266" lon="6.32328">
        <ele>1984.3</ele>
        <time>2021-01-23T11:09:27Z</time>
      </trkpt>
      <trkpt lat="46.00284" lon="6.32349">
        <ele>1987.18</ele>
        <time>2021-01-23T11:09:57Z</time>
      </trkpt>
      <trkpt lat="46.00302" lon="6.32373">
        <ele>1991.51</ele>
        <time>2021-01-23T11:10:29Z</time>
      </trkpt>
      <trkpt lat="46.00318" lon="6.32393">
        <ele>1992.95</ele>
        <time>2021-01-23T11:10:55Z</time>
      </trkpt>
      <trkpt lat="46.00332" lon="6.32414">
        <ele>1995.35</ele>
        <time>2021-01-23T11:11:23Z</time>
      </trkpt>
      <trkpt lat="46.00343" lon="6.3244">
        <ele>1996.32</ele>
        <time>2021-01-23T11:11:50Z</time>
      </trkpt>
      <trkpt lat="46.00358" lon="6.32466">
        <ele>1998.72</ele>
        <time>2021-01-23T11:12:21Z</time>
      </trkpt>
      <trkpt lat="46.00367" lon="6.32489">
        <ele>2002.08</ele>
        <time>2021-01-23T11:12:48Z</time>
      </trkpt>
      <trkpt lat="46.00374" lon="6.32516">
        <ele>2004.97</ele>
        <time>2021-01-23T11:13:16Z</time>
      </trkpt>
      <trkpt lat="46.00383" lon="6.32549">
        <ele>2007.37</ele>
        <time>2021-01-23T11:13:47Z</time>
      </trkpt>
      <trkpt lat="46.00387" lon="6.32564">
        <ele>2001.6</ele>
        <time>2021-01-23T11:17:58Z</time>
      </trkpt>
      <trkpt lat="46.00388" lon="6.32562">
        <ele>2008.81</ele>
        <time>2021-01-23T11:26:21Z</time>
      </trkpt>
      <trkpt lat="46.00384" lon="6.32543">
        <ele>2007.85</ele>
        <time>2021-01-23T11:28:13Z</time>
      </trkpt>
      <trkpt lat="46.00379" lon="6.32501">
        <ele>2005.45</ele>
        <time>2021-01-23T11:28:38Z</time>
      </trkpt>
      <trkpt lat="46.00359" lon="6.32457">
        <ele>1998.24</ele>
        <time>2021-01-23T11:28:49Z</time>
      </trkpt>
      <trkpt lat="46.00355" lon="6.3243">
        <ele>1996.32</ele>
        <time>2021-01-23T11:28:54Z</time>
      </trkpt>
      <trkpt lat="46.00346" lon="6.32402">
        <ele>1995.83</ele>
        <time>2021-01-23T11:29:08Z</time>
      </trkpt>
      <trkpt lat="46.00334" lon="6.32372">
        <ele>1992.95</ele>
        <time>2021-01-23T11:29:32Z</time>
      </trkpt>
      <trkpt lat="46.00319" lon="6.3235">
        <ele>1991.51</ele>
        <time>2021-01-23T11:29:39Z</time>
      </trkpt>
      <trkpt lat="46.00298" lon="6.32332">
        <ele>1988.14</ele>
        <time>2021-01-23T11:29:48Z</time>
      </trkpt>
      <trkpt lat="46.00276" lon="6.3232">
        <ele>1984.78</ele>
        <time>2021-01-23T11:30:03Z</time>
      </trkpt>
      <trkpt lat="46.00262" lon="6.32298">
        <ele>1983.82</ele>
        <time>2021-01-23T11:30:23Z</time>
      </trkpt>
      <trkpt lat="46.00243" lon="6.32271">
        <ele>1979.49</ele>
        <time>2021-01-23T11:30:29Z</time>
      </trkpt>
      <trkpt lat="46.00221" lon="6.32249">
        <ele>1976.61</ele>
        <time>2021-01-23T11:30:37Z</time>
      </trkpt>
      <trkpt lat="46.00205" lon="6.32231">
        <ele>1974.69</ele>
        <time>2021-01-23T11:30:44Z</time>
      </trkpt>
      <trkpt lat="46.0019" lon="6.32214">
        <ele>1974.69</ele>
        <time>2021-01-23T11:30:49Z</time>
      </trkpt>
      <trkpt lat="46.00175" lon="6.322">
        <ele>1967.96</ele>
        <time>2021-01-23T11:30:54Z</time>
      </trkpt>
      <trkpt lat="46.00157" lon="6.32181">
        <ele>1964.59</ele>
        <time>2021-01-23T11:31:00Z</time>
      </trkpt>
      <trkpt lat="46.0015" lon="6.32153">
        <ele>1961.71</ele>
        <time>2021-01-23T11:31:40Z</time>
      </trkpt>
      <trkpt lat="46.0014" lon="6.32113">
        <ele>1956.9</ele>
        <time>2021-01-23T11:31:45Z</time>
      </trkpt>
      <trkpt lat="46.00122" lon="6.32084">
        <ele>1952.57</ele>
        <time>2021-01-23T11:32:02Z</time>
      </trkpt>
      <trkpt lat="46.00101" lon="6.32059">
        <ele>1948.73</ele>
        <time>2021-01-23T11:32:07Z</time>
      </trkpt>
      <trkpt lat="46.00075" lon="6.32029">
        <ele>1943.92</ele>
        <time>2021-01-23T11:32:13Z</time>
      </trkpt>
      <trkpt lat="46.00051" lon="6.32007">
        <ele>1940.56</ele>
        <time>2021-01-23T11:32:18Z</time>
      </trkpt>
      <trkpt lat="46.00029" lon="6.31977">
        <ele>1938.16</ele>
        <time>2021-01-23T11:32:23Z</time>
      </trkpt>
      <trkpt lat="46.00007" lon="6.31945">
        <ele>1934.31</ele>
        <time>2021-01-23T11:32:37Z</time>
      </trkpt>
      <trkpt lat="45.99995" lon="6.31925">
        <ele>1933.35</ele>
        <time>2021-01-23T11:32:50Z</time>
      </trkpt>
      <trkpt lat="45.99983" lon="6.31903">
        <ele>1932.87</ele>
        <time>2021-01-23T11:33:14Z</time>
      </trkpt>
      <trkpt lat="45.99973" lon="6.31886">
        <ele>1931.91</ele>
        <time>2021-01-23T11:34:05Z</time>
      </trkpt>
      <trkpt lat="45.99959" lon="6.31867">
        <ele>1931.43</ele>
        <time>2021-01-23T11:35:07Z</time>
      </trkpt>
      <trkpt lat="45.99941" lon="6.31816">
        <ele>1927.58</ele>
        <time>2021-01-23T11:35:17Z</time>
      </trkpt>
      <trkpt lat="45.99932" lon="6.31791">
        <ele>1924.22</ele>
        <time>2021-01-23T11:35:22Z</time>
      </trkpt>
      <trkpt lat="45.99921" lon="6.31767">
        <ele>1922.77</ele>
        <time>2021-01-23T11:35:32Z</time>
      </trkpt>
      <trkpt lat="45.99906" lon="6.31749">
        <ele>1919.41</ele>
        <time>2021-01-23T11:36:54Z</time>
      </trkpt>
      <trkpt lat="45.99884" lon="6.31732">
        <ele>1916.53</ele>
        <time>2021-01-23T11:36:59Z</time>
      </trkpt>
      <trkpt lat="45.99877" lon="6.31702">
        <ele>1912.2</ele>
        <time>2021-01-23T11:37:05Z</time>
      </trkpt>
      <trkpt lat="45.99858" lon="6.31684">
        <ele>1908.83</ele>
        <time>2021-01-23T11:37:11Z</time>
      </trkpt>
      <trkpt lat="45.9984" lon="6.31657">
        <ele>1906.43</ele>
        <time>2021-01-23T11:37:21Z</time>
      </trkpt>
      <trkpt lat="45.99825" lon="6.31638">
        <ele>1905.47</ele>
        <time>2021-01-23T11:37:38Z</time>
      </trkpt>
      <trkpt lat="45.99807" lon="6.3163">
        <ele>1904.99</ele>
        <time>2021-01-23T11:38:12Z</time>
      </trkpt>
      <trkpt lat="45.99788" lon="6.31625">
        <ele>1901.14</ele>
        <time>2021-01-23T11:38:20Z</time>
      </trkpt>
      <trkpt lat="45.99767" lon="6.31598">
        <ele>1894.42</ele>
        <time>2021-01-23T11:38:29Z</time>
      </trkpt>
      <trkpt lat="45.99756" lon="6.31578">
        <ele>1892.97</ele>
        <time>2021-01-23T11:38:34Z</time>
      </trkpt>
      <trkpt lat="45.99732" lon="6.31567">
        <ele>1884.8</ele>
        <time>2021-01-23T11:38:50Z</time>
      </trkpt>
      <trkpt lat="45.99718" lon="6.31566">
        <ele>1876.15</ele>
        <time>2021-01-23T11:38:58Z</time>
      </trkpt>
      <trkpt lat="45.997" lon="6.31585">
        <ele>1869.42</ele>
        <time>2021-01-23T11:39:16Z</time>
      </trkpt>
      <trkpt lat="45.9968" lon="6.316">
        <ele>1862.21</ele>
        <time>2021-01-23T11:39:22Z</time>
      </trkpt>
      <trkpt lat="45.99658" lon="6.31592">
        <ele>1859.81</ele>
        <time>2021-01-23T11:40:42Z</time>
      </trkpt>
      <trkpt lat="45.9963" lon="6.31577">
        <ele>1856.44</ele>
        <time>2021-01-23T11:40:54Z</time>
      </trkpt>
      <trkpt lat="45.99611" lon="6.31554">
        <ele>1855.48</ele>
        <time>2021-01-23T11:41:11Z</time>
      </trkpt>
      <trkpt lat="45.99601" lon="6.31526">
        <ele>1851.16</ele>
        <time>2021-01-23T11:41:30Z</time>
      </trkpt>
      <trkpt lat="45.99599" lon="6.31498">
        <ele>1851.16</ele>
        <time>2021-01-23T11:42:15Z</time>
      </trkpt>
      <trkpt lat="45.99601" lon="6.31472">
        <ele>1852.12</ele>
        <time>2021-01-23T11:43:50Z</time>
      </trkpt>
      <trkpt lat="45.99606" lon="6.31453">
        <ele>1851.64</ele>
        <time>2021-01-23T11:45:36Z</time>
      </trkpt>
      <trkpt lat="45.99608" lon="6.31428">
        <ele>1841.06</ele>
        <time>2021-01-23T11:45:44Z</time>
      </trkpt>
      <trkpt lat="45.99616" lon="6.31381">
        <ele>1829.05</ele>
        <time>2021-01-23T11:45:54Z</time>
      </trkpt>
      <trkpt lat="45.99621" lon="6.31348">
        <ele>1820.87</ele>
        <time>2021-01-23T11:45:58Z</time>
      </trkpt>
      <trkpt lat="45.99607" lon="6.3133">
        <ele>1817.03</ele>
        <time>2021-01-23T11:46:13Z</time>
      </trkpt>
      <trkpt lat="45.99606" lon="6.31306">
        <ele>1811.26</ele>
        <time>2021-01-23T11:46:53Z</time>
      </trkpt>
      <trkpt lat="45.99599" lon="6.31258">
        <ele>1804.53</ele>
        <time>2021-01-23T11:47:04Z</time>
      </trkpt>
      <trkpt lat="45.9959" lon="6.31225">
        <ele>1796.36</ele>
        <time>2021-01-23T11:47:09Z</time>
      </trkpt>
      <trkpt lat="45.99588" lon="6.31199">
        <ele>1794.92</ele>
        <time>2021-01-23T11:47:34Z</time>
      </trkpt>
      <trkpt lat="45.99574" lon="6.3117">
        <ele>1793.96</ele>
        <time>2021-01-23T11:48:19Z</time>
      </trkpt>
      <trkpt lat="45.99546" lon="6.3113">
        <ele>1788.67</ele>
        <time>2021-01-23T11:48:36Z</time>
      </trkpt>
      <trkpt lat="45.99539" lon="6.31106">
        <ele>1784.34</ele>
        <time>2021-01-23T11:48:42Z</time>
      </trkpt>
      <trkpt lat="45.99532" lon="6.3108">
        <ele>1781.46</ele>
        <time>2021-01-23T11:48:48Z</time>
      </trkpt>
      <trkpt lat="45.99507" lon="6.31058">
        <ele>1777.61</ele>
        <time>2021-01-23T11:48:58Z</time>
      </trkpt>
      <trkpt lat="45.99506" lon="6.31042">
        <ele>1774.73</ele>
        <time>2021-01-23T11:52:25Z</time>
      </trkpt>
      <trkpt lat="45.99497" lon="6.30992">
        <ele>1765.6</ele>
        <time>2021-01-23T11:52:32Z</time>
      </trkpt>
      <trkpt lat="45.99472" lon="6.30971">
        <ele>1758.39</ele>
        <time>2021-01-23T11:52:54Z</time>
      </trkpt>
      <trkpt lat="45.99465" lon="6.30933">
        <ele>1748.78</ele>
        <time>2021-01-23T11:52:59Z</time>
      </trkpt>
      <trkpt lat="45.99464" lon="6.30898">
        <ele>1742.53</ele>
        <time>2021-01-23T11:53:48Z</time>
      </trkpt>
      <trkpt lat="45.99466" lon="6.30871">
        <ele>1735.32</ele>
        <time>2021-01-23T11:53:52Z</time>
      </trkpt>
      <trkpt lat="45.99467" lon="6.30841">
        <ele>1728.59</ele>
        <time>2021-01-23T11:54:00Z</time>
      </trkpt>
      <trkpt lat="45.99475" lon="6.30811">
        <ele>1720.9</ele>
        <time>2021-01-23T11:54:05Z</time>
      </trkpt>
      <trkpt lat="45.99486" lon="6.3078">
        <ele>1716.09</ele>
        <time>2021-01-23T11:54:09Z</time>
      </trkpt>
      <trkpt lat="45.99491" lon="6.30732">
        <ele>1713.21</ele>
        <time>2021-01-23T11:54:19Z</time>
      </trkpt>
      <trkpt lat="45.99499" lon="6.30711">
        <ele>1709.36</ele>
        <time>2021-01-23T11:54:50Z</time>
      </trkpt>
      <trkpt lat="45.99504" lon="6.30661">
        <ele>1705.04</ele>
        <time>2021-01-23T11:54:59Z</time>
      </trkpt>
      <trkpt lat="45.99508" lon="6.30632">
        <ele>1697.83</ele>
        <time>2021-01-23T11:55:10Z</time>
      </trkpt>
      <trkpt lat="45.99513" lon="6.30607">
        <ele>1693.5</ele>
        <time>2021-01-23T11:55:19Z</time>
      </trkpt>
      <trkpt lat="45.9951" lon="6.30576">
        <ele>1683.89</ele>
        <time>2021-01-23T11:55:27Z</time>
      </trkpt>
      <trkpt lat="45.99508" lon="6.30545">
        <ele>1681</ele>
        <time>2021-01-23T11:56:24Z</time>
      </trkpt>
      <trkpt lat="45.99505" lon="6.30502">
        <ele>1678.6</ele>
        <time>2021-01-23T11:56:31Z</time>
      </trkpt>
      <trkpt lat="45.9952" lon="6.30475">
        <ele>1673.31</ele>
        <time>2021-01-23T11:56:42Z</time>
      </trkpt>
      <trkpt lat="45.99541" lon="6.30469">
        <ele>1673.79</ele>
        <time>2021-01-23T11:57:02Z</time>
      </trkpt>
      <trkpt lat="45.99559" lon="6.30448">
        <ele>1670.91</ele>
        <time>2021-01-23T11:57:19Z</time>
      </trkpt>
      <trkpt lat="45.99559" lon="6.30419">
        <ele>1666.1</ele>
        <time>2021-01-23T11:57:23Z</time>
      </trkpt>
      <trkpt lat="45.99569" lon="6.30384">
        <ele>1660.81</ele>
        <time>2021-01-23T11:57:30Z</time>
      </trkpt>
      <trkpt lat="45.99582" lon="6.30353">
        <ele>1656.97</ele>
        <time>2021-01-23T11:57:36Z</time>
      </trkpt>
      <trkpt lat="45.996" lon="6.30331">
        <ele>1652.64</ele>
        <time>2021-01-23T11:57:40Z</time>
      </trkpt>
      <trkpt lat="45.9961" lon="6.30306">
        <ele>1648.8</ele>
        <time>2021-01-23T11:57:46Z</time>
      </trkpt>
      <trkpt lat="45.99624" lon="6.30283">
        <ele>1648.32</ele>
        <time>2021-01-23T11:58:01Z</time>
      </trkpt>
      <trkpt lat="45.99644" lon="6.30254">
        <ele>1646.88</ele>
        <time>2021-01-23T11:58:10Z</time>
      </trkpt>
      <trkpt lat="45.99657" lon="6.30233">
        <ele>1645.91</ele>
        <time>2021-01-23T11:58:21Z</time>
      </trkpt>
      <trkpt lat="45.99668" lon="6.30211">
        <ele>1643.99</ele>
        <time>2021-01-23T11:58:26Z</time>
      </trkpt>
      <trkpt lat="45.99668" lon="6.3018">
        <ele>1638.7</ele>
        <time>2021-01-23T11:58:33Z</time>
      </trkpt>
      <trkpt lat="45.99657" lon="6.30153">
        <ele>1632.46</ele>
        <time>2021-01-23T11:59:03Z</time>
      </trkpt>
      <trkpt lat="45.99646" lon="6.30134">
        <ele>1626.69</ele>
        <time>2021-01-23T11:59:17Z</time>
      </trkpt>
      <trkpt lat="45.99627" lon="6.30107">
        <ele>1618.04</ele>
        <time>2021-01-23T11:59:26Z</time>
      </trkpt>
      <trkpt lat="45.99623" lon="6.30084">
        <ele>1612.27</ele>
        <time>2021-01-23T11:59:41Z</time>
      </trkpt>
      <trkpt lat="45.99611" lon="6.30049">
        <ele>1606.5</ele>
        <time>2021-01-23T12:00:02Z</time>
      </trkpt>
      <trkpt lat="45.99614" lon="6.30014">
        <ele>1599.29</ele>
        <time>2021-01-23T12:00:11Z</time>
      </trkpt>
      <trkpt lat="45.99609" lon="6.29991">
        <ele>1596.89</ele>
        <time>2021-01-23T12:00:48Z</time>
      </trkpt>
      <trkpt lat="45.996" lon="6.29968">
        <ele>1591.12</ele>
        <time>2021-01-23T12:01:12Z</time>
      </trkpt>
      <trkpt lat="45.9958" lon="6.29941">
        <ele>1581.99</ele>
        <time>2021-01-23T12:01:58Z</time>
      </trkpt>
      <trkpt lat="45.99573" lon="6.2991">
        <ele>1579.1</ele>
        <time>2021-01-23T12:02:03Z</time>
      </trkpt>
      <trkpt lat="45.99581" lon="6.29868">
        <ele>1578.14</ele>
        <time>2021-01-23T12:02:14Z</time>
      </trkpt>
      <trkpt lat="45.99583" lon="6.29849">
        <ele>1577.66</ele>
        <time>2021-01-23T12:04:26Z</time>
      </trkpt>
      <trkpt lat="45.99582" lon="6.29848">
        <ele>1580.54</ele>
        <time>2021-01-23T12:15:05Z</time>
      </trkpt>
      <trkpt lat="45.99583" lon="6.29848">
        <ele>1582.47</ele>
        <time>2021-01-23T12:21:54Z</time>
      </trkpt>
      <trkpt lat="45.99568" lon="6.29862">
        <ele>1579.1</ele>
        <time>2021-01-23T12:23:19Z</time>
      </trkpt>
      <trkpt lat="45.99569" lon="6.2986">
        <ele>1581.03</ele>
        <time>2021-01-23T12:27:36Z</time>
      </trkpt>
      <trkpt lat="45.99562" lon="6.29862">
        <ele>1573.82</ele>
        <time>2021-01-23T12:30:43Z</time>
      </trkpt>
      <trkpt lat="45.9956" lon="6.29863">
        <ele>1581.03</ele>
        <time>2021-01-23T12:36:57Z</time>
      </trkpt>
      <trkpt lat="45.99564" lon="6.29868">
        <ele>1582.95</ele>
        <time>2021-01-23T12:40:13Z</time>
      </trkpt>
      <trkpt lat="45.99558" lon="6.29858">
        <ele>1582.95</ele>
        <time>2021-01-23T12:45:18Z</time>
      </trkpt>
      <trkpt lat="45.99562" lon="6.29858">
        <ele>1582.47</ele>
        <time>2021-01-23T12:49:45Z</time>
      </trkpt>
      <trkpt lat="45.9956" lon="6.29858">
        <ele>1581.03</ele>
        <time>2021-01-23T12:53:01Z</time>
      </trkpt>
      <trkpt lat="45.99558" lon="6.29852">
        <ele>1580.06</ele>
        <time>2021-01-23T12:56:51Z</time>
      </trkpt>
      <trkpt lat="45.9956" lon="6.29858">
        <ele>1581.99</ele>
        <time>2021-01-23T13:00:03Z</time>
      </trkpt>
      <trkpt lat="45.99557" lon="6.29856">
        <ele>1583.43</ele>
        <time>2021-01-23T13:03:43Z</time>
      </trkpt>
      <trkpt lat="45.99563" lon="6.29855">
        <ele>1585.35</ele>
        <time>2021-01-23T13:07:35Z</time>
      </trkpt>
      <trkpt lat="45.99578" lon="6.29851">
        <ele>1588.72</ele>
        <time>2021-01-23T13:09:12Z</time>
      </trkpt>
      <trkpt lat="45.99582" lon="6.29848">
        <ele>1589.68</ele>
        <time>2021-01-23T13:12:26Z</time>
      </trkpt>
      <trkpt lat="45.99584" lon="6.29852">
        <ele>1591.12</ele>
        <time>2021-01-23T13:17:29Z</time>
      </trkpt>
      <trkpt lat="45.99603" lon="6.29871">
        <ele>1585.83</ele>
        <time>2021-01-23T13:18:08Z</time>
      </trkpt>
      <trkpt lat="45.99628" lon="6.29867">
        <ele>1578.62</ele>
        <time>2021-01-23T13:18:20Z</time>
      </trkpt>
      <trkpt lat="45.9965" lon="6.29844">
        <ele>1572.37</ele>
        <time>2021-01-23T13:18:31Z</time>
      </trkpt>
      <trkpt lat="45.99671" lon="6.29811">
        <ele>1561.8</ele>
        <time>2021-01-23T13:18:45Z</time>
      </trkpt>
      <trkpt lat="45.99683" lon="6.29777">
        <ele>1556.03</ele>
        <time>2021-01-23T13:18:51Z</time>
      </trkpt>
      <trkpt lat="45.99696" lon="6.2974">
        <ele>1550.74</ele>
        <time>2021-01-23T13:18:58Z</time>
      </trkpt>
      <trkpt lat="45.9971" lon="6.29724">
        <ele>1544.98</ele>
        <time>2021-01-23T13:19:03Z</time>
      </trkpt>
      <trkpt lat="45.99732" lon="6.29728">
        <ele>1538.73</ele>
        <time>2021-01-23T13:19:08Z</time>
      </trkpt>
      <trkpt lat="45.99758" lon="6.29746">
        <ele>1531.04</ele>
        <time>2021-01-23T13:19:15Z</time>
      </trkpt>
      <trkpt lat="45.99778" lon="6.29761">
        <ele>1524.79</ele>
        <time>2021-01-23T13:19:20Z</time>
      </trkpt>
      <trkpt lat="45.99797" lon="6.29774">
        <ele>1519.98</ele>
        <time>2021-01-23T13:19:28Z</time>
      </trkpt>
      <trkpt lat="45.99821" lon="6.29782">
        <ele>1513.73</ele>
        <time>2021-01-23T13:19:43Z</time>
      </trkpt>
      <trkpt lat="45.99839" lon="6.29786">
        <ele>1507.48</ele>
        <time>2021-01-23T13:20:00Z</time>
      </trkpt>
      <trkpt lat="45.99864" lon="6.29793">
        <ele>1502.68</ele>
        <time>2021-01-23T13:20:20Z</time>
      </trkpt>
      <trkpt lat="45.9989" lon="6.29801">
        <ele>1494.99</ele>
        <time>2021-01-23T13:20:34Z</time>
      </trkpt>
      <trkpt lat="45.9991" lon="6.29804">
        <ele>1487.78</ele>
        <time>2021-01-23T13:20:41Z</time>
      </trkpt>
      <trkpt lat="45.99947" lon="6.29809">
        <ele>1481.05</ele>
        <time>2021-01-23T13:20:51Z</time>
      </trkpt>
      <trkpt lat="45.99968" lon="6.2981">
        <ele>1476.72</ele>
        <time>2021-01-23T13:20:55Z</time>
      </trkpt>
      <trkpt lat="45.99987" lon="6.29819">
        <ele>1470.95</ele>
        <time>2021-01-23T13:20:58Z</time>
      </trkpt>
      <trkpt lat="45.99991" lon="6.29816">
        <ele>1466.15</ele>
        <time>2021-01-23T13:21:21Z</time>
      </trkpt>
      <trkpt lat="45.99978" lon="6.29798">
        <ele>1463.26</ele>
        <time>2021-01-23T13:22:56Z</time>
      </trkpt>
      <trkpt lat="45.99959" lon="6.29766">
        <ele>1455.57</ele>
        <time>2021-01-23T13:23:04Z</time>
      </trkpt>
      <trkpt lat="45.99945" lon="6.29742">
        <ele>1449.81</ele>
        <time>2021-01-23T13:23:15Z</time>
      </trkpt>
      <trkpt lat="45.99947" lon="6.29713">
        <ele>1441.15</ele>
        <time>2021-01-23T13:23:39Z</time>
      </trkpt>
      <trkpt lat="45.9994" lon="6.29691">
        <ele>1436.35</ele>
        <time>2021-01-23T13:23:50Z</time>
      </trkpt>
      <trkpt lat="45.9995" lon="6.29668">
        <ele>1429.62</ele>
        <time>2021-01-23T13:23:57Z</time>
      </trkpt>
      <trkpt lat="45.99951" lon="6.29634">
        <ele>1423.85</ele>
        <time>2021-01-23T13:24:05Z</time>
      </trkpt>
      <trkpt lat="45.99968" lon="6.29597">
        <ele>1415.68</ele>
        <time>2021-01-23T13:24:14Z</time>
      </trkpt>
      <trkpt lat="45.99984" lon="6.29582">
        <ele>1411.83</ele>
        <time>2021-01-23T13:24:18Z</time>
      </trkpt>
      <trkpt lat="46.00003" lon="6.29568">
        <ele>1407.03</ele>
        <time>2021-01-23T13:24:25Z</time>
      </trkpt>
      <trkpt lat="46.00027" lon="6.29542">
        <ele>1398.86</ele>
        <time>2021-01-23T13:24:34Z</time>
      </trkpt>
      <trkpt lat="46.00053" lon="6.29534">
        <ele>1394.53</ele>
        <time>2021-01-23T13:25:39Z</time>
      </trkpt>
      <trkpt lat="46.00086" lon="6.29523">
        <ele>1390.2</ele>
        <time>2021-01-23T13:25:47Z</time>
      </trkpt>
      <trkpt lat="46.00108" lon="6.2953">
        <ele>1386.36</ele>
        <time>2021-01-23T13:25:55Z</time>
      </trkpt>
      <trkpt lat="46.00124" lon="6.29554">
        <ele>1382.51</ele>
        <time>2021-01-23T13:26:02Z</time>
      </trkpt>
      <trkpt lat="46.00141" lon="6.29566">
        <ele>1378.67</ele>
        <time>2021-01-23T13:26:08Z</time>
      </trkpt>
      <trkpt lat="46.00161" lon="6.29588">
        <ele>1373.38</ele>
        <time>2021-01-23T13:26:13Z</time>
      </trkpt>
      <trkpt lat="46.00179" lon="6.29606">
        <ele>1368.57</ele>
        <time>2021-01-23T13:26:18Z</time>
      </trkpt>
      <trkpt lat="46.00195" lon="6.29622">
        <ele>1365.69</ele>
        <time>2021-01-23T13:26:29Z</time>
      </trkpt>
      <trkpt lat="46.0022" lon="6.29636">
        <ele>1358.48</ele>
        <time>2021-01-23T13:26:53Z</time>
      </trkpt>
      <trkpt lat="46.00241" lon="6.29654">
        <ele>1352.71</ele>
        <time>2021-01-23T13:27:00Z</time>
      </trkpt>
      <trkpt lat="46.00259" lon="6.2967">
        <ele>1347.91</ele>
        <time>2021-01-23T13:27:05Z</time>
      </trkpt>
      <trkpt lat="46.00286" lon="6.29695">
        <ele>1340.22</ele>
        <time>2021-01-23T13:27:17Z</time>
      </trkpt>
      <trkpt lat="46.00308" lon="6.29718">
        <ele>1333.97</ele>
        <time>2021-01-23T13:27:24Z</time>
      </trkpt>
      <trkpt lat="46.00324" lon="6.29729">
        <ele>1331.56</ele>
        <time>2021-01-23T13:27:28Z</time>
      </trkpt>
      <trkpt lat="46.00341" lon="6.29743">
        <ele>1328.68</ele>
        <time>2021-01-23T13:27:33Z</time>
      </trkpt>
      <trkpt lat="46.00357" lon="6.29761">
        <ele>1325.8</ele>
        <time>2021-01-23T13:27:56Z</time>
      </trkpt>
      <trkpt lat="46.00373" lon="6.29773">
        <ele>1320.03</ele>
        <time>2021-01-23T13:28:04Z</time>
      </trkpt>
      <trkpt lat="46.00395" lon="6.29775">
        <ele>1314.26</ele>
        <time>2021-01-23T13:28:18Z</time>
      </trkpt>
      <trkpt lat="46.0043" lon="6.29783">
        <ele>1305.13</ele>
        <time>2021-01-23T13:28:28Z</time>
      </trkpt>
      <trkpt lat="46.00454" lon="6.2979">
        <ele>1298.88</ele>
        <time>2021-01-23T13:28:35Z</time>
      </trkpt>
      <trkpt lat="46.00476" lon="6.29796">
        <ele>1293.11</ele>
        <time>2021-01-23T13:28:43Z</time>
      </trkpt>
      <trkpt lat="46.00499" lon="6.29807">
        <ele>1289.75</ele>
        <time>2021-01-23T13:28:49Z</time>
      </trkpt>
      <trkpt lat="46.00532" lon="6.29819">
        <ele>1283.02</ele>
        <time>2021-01-23T13:29:00Z</time>
      </trkpt>
      <trkpt lat="46.0055" lon="6.29831">
        <ele>1279.17</ele>
        <time>2021-01-23T13:29:05Z</time>
      </trkpt>
      <trkpt lat="46.00571" lon="6.29842">
        <ele>1274.85</ele>
        <time>2021-01-23T13:29:10Z</time>
      </trkpt>
      <trkpt lat="46.00592" lon="6.29843">
        <ele>1271</ele>
        <time>2021-01-23T13:29:16Z</time>
      </trkpt>
      <trkpt lat="46.00605" lon="6.29861">
        <ele>1268.6</ele>
        <time>2021-01-23T13:29:26Z</time>
      </trkpt>
      <trkpt lat="46.00624" lon="6.29891">
        <ele>1262.35</ele>
        <time>2021-01-23T13:29:32Z</time>
      </trkpt>
      <trkpt lat="46.00659" lon="6.29892">
        <ele>1257.06</ele>
        <time>2021-01-23T13:29:38Z</time>
      </trkpt>
      <trkpt lat="46.00688" lon="6.29906">
        <ele>1251.77</ele>
        <time>2021-01-23T13:30:09Z</time>
      </trkpt>
      <trkpt lat="46.00701" lon="6.2993">
        <ele>1248.41</ele>
        <time>2021-01-23T13:30:17Z</time>
      </trkpt>
      <trkpt lat="46.00708" lon="6.2996">
        <ele>1243.6</ele>
        <time>2021-01-23T13:30:25Z</time>
      </trkpt>
      <trkpt lat="46.00718" lon="6.29982">
        <ele>1239.28</ele>
        <time>2021-01-23T13:30:32Z</time>
      </trkpt>
      <trkpt lat="46.00735" lon="6.30013">
        <ele>1232.55</ele>
        <time>2021-01-23T13:30:41Z</time>
      </trkpt>
      <trkpt lat="46.00749" lon="6.30032">
        <ele>1227.74</ele>
        <time>2021-01-23T13:30:47Z</time>
      </trkpt>
      <trkpt lat="46.00766" lon="6.3004">
        <ele>1222.93</ele>
        <time>2021-01-23T13:31:04Z</time>
      </trkpt>
      <trkpt lat="46.00785" lon="6.30037">
        <ele>1218.61</ele>
        <time>2021-01-23T13:31:29Z</time>
      </trkpt>
      <trkpt lat="46.00806" lon="6.30036">
        <ele>1213.32</ele>
        <time>2021-01-23T13:31:38Z</time>
      </trkpt>
      <trkpt lat="46.00825" lon="6.30045">
        <ele>1208.51</ele>
        <time>2021-01-23T13:31:44Z</time>
      </trkpt>
      <trkpt lat="46.0084" lon="6.30081">
        <ele>1199.86</ele>
        <time>2021-01-23T13:31:53Z</time>
      </trkpt>
      <trkpt lat="46.00863" lon="6.30086">
        <ele>1195.54</ele>
        <time>2021-01-23T13:32:06Z</time>
      </trkpt>
      <trkpt lat="46.00886" lon="6.30065">
        <ele>1192.17</ele>
        <time>2021-01-23T13:32:31Z</time>
      </trkpt>
      <trkpt lat="46.00928" lon="6.3005">
        <ele>1185.44</ele>
        <time>2021-01-23T13:32:43Z</time>
      </trkpt>
      <trkpt lat="46.00984" lon="6.3005">
        <ele>1182.56</ele>
        <time>2021-01-23T13:32:55Z</time>
      </trkpt>
      <trkpt lat="46.01009" lon="6.30057">
        <ele>1182.08</ele>
        <time>2021-01-23T13:33:20Z</time>
      </trkpt>
      <trkpt lat="46.01032" lon="6.30053">
        <ele>1180.64</ele>
        <time>2021-01-23T13:34:05Z</time>
      </trkpt>
      <trkpt lat="46.01053" lon="6.3004">
        <ele>1175.35</ele>
        <time>2021-01-23T13:34:11Z</time>
      </trkpt>
      <trkpt lat="46.01082" lon="6.30041">
        <ele>1171.98</ele>
        <time>2021-01-23T13:34:21Z</time>
      </trkpt>
      <trkpt lat="46.01107" lon="6.30049">
        <ele>1167.18</ele>
        <time>2021-01-23T13:34:27Z</time>
      </trkpt>
      <trkpt lat="46.0113" lon="6.30059">
        <ele>1162.85</ele>
        <time>2021-01-23T13:34:37Z</time>
      </trkpt>
      <trkpt lat="46.0115" lon="6.30069">
        <ele>1157.08</ele>
        <time>2021-01-23T13:34:46Z</time>
      </trkpt>
      <trkpt lat="46.0117" lon="6.30088">
        <ele>1151.8</ele>
        <time>2021-01-23T13:34:56Z</time>
      </trkpt>
      <trkpt lat="46.01184" lon="6.30108">
        <ele>1146.03</ele>
        <time>2021-01-23T13:35:05Z</time>
      </trkpt>
      <trkpt lat="46.01201" lon="6.30122">
        <ele>1144.11</ele>
        <time>2021-01-23T13:35:36Z</time>
      </trkpt>
      <trkpt lat="46.01226" lon="6.30138">
        <ele>1136.9</ele>
        <time>2021-01-23T13:35:54Z</time>
      </trkpt>
      <trkpt lat="46.01246" lon="6.30139">
        <ele>1132.09</ele>
        <time>2021-01-23T13:36:22Z</time>
      </trkpt>
      <trkpt lat="46.0127" lon="6.30141">
        <ele>1126.8</ele>
        <time>2021-01-23T13:36:55Z</time>
      </trkpt>
      <trkpt lat="46.01279" lon="6.30133">
        <ele>1125.36</ele>
        <time>2021-01-23T13:38:48Z</time>
      </trkpt>
      <trkpt lat="46.01299" lon="6.30129">
        <ele>1121.03</ele>
        <time>2021-01-23T13:39:16Z</time>
      </trkpt>
      <trkpt lat="46.0132" lon="6.30133">
        <ele>1116.23</ele>
        <time>2021-01-23T13:39:45Z</time>
      </trkpt>
      <trkpt lat="46.01341" lon="6.30131">
        <ele>1111.9</ele>
        <time>2021-01-23T13:40:12Z</time>
      </trkpt>
      <trkpt lat="46.01368" lon="6.30128">
        <ele>1105.65</ele>
        <time>2021-01-23T13:40:49Z</time>
      </trkpt>
      <trkpt lat="46.01391" lon="6.30129">
        <ele>1101.81</ele>
        <time>2021-01-23T13:41:17Z</time>
      </trkpt>
      <trkpt lat="46.01413" lon="6.30127">
        <ele>1099.89</ele>
        <time>2021-01-23T13:41:47Z</time>
      </trkpt>
      <trkpt lat="46.01421" lon="6.30128">
        <ele>1097.96</ele>
        <time>2021-01-23T13:42:47Z</time>
      </trkpt>
      <trkpt lat="46.01422" lon="6.30134">
        <ele>1099.89</ele>
        <time>2021-01-23T13:43:45Z</time>
      </trkpt>
    </trkseg>
  </trk>
</gpx>